Time;durP1;ratioP1;P1;durP2;ratioP2;P2;SDS_P1;SDS_P2;PMS_P1;PMS_P2;Temp;Humidity;BMP_temperature;BMP_pressure;BME280_temperature;BME280_humidity;BME280_pressure;Samples;Min_cycle;Max_cycle;Signal;HPM_P1;HPM_P2
2021/09/30 00:02:06;;;;;;;;;;;;;;;9.42;71.85;100485.72;5048623;28;19970;-72
2021/09/30 00:04:31;;;;;;;;;;;;;;;9.42;71.51;100490.97;5047923;28;19920;-72
2021/09/30 00:06:57;;;;;;;;;;;;;;;9.41;71.74;100495.38;5049132;28;19916;-72
2021/09/30 00:09:22;;;;;;;;;;;;;;;9.37;72.38;100485.00;5049477;28;19962;-72
2021/09/30 00:11:51;;;;;;;;;;;;;;;9.35;71.76;100490.34;5048485;28;19935;-70
2021/09/30 00:14:52;;;;;;;;;;;;;;;9.33;71.90;100494.78;5047959;28;19944;-72
2021/09/30 00:36:10;;;;;;;;;;;;;;;9.18;72.97;100513.66;5029223;28;19921;-71
2021/09/30 00:46:57;;;;;;;;;;;;;;;9.19;72.26;100511.00;5030321;28;19963;-72
2021/09/30 00:52:14;;;;;;;;;;;;;;;9.17;72.74;100518.09;5014999;28;19913;-72
2021/09/30 00:55:07;;;;;;;;;;;;;;;9.16;72.31;100516.38;5013904;28;19914;-72
2021/09/30 01:23:35;;;;;;;;;;;;;;;9.07;72.36;100513.16;5013134;28;19995;-73
2021/09/30 02:18:07;;;;;;;;;;;;;;;8.97;73.28;100538.88;5055534;28;19990;-72
2021/09/30 02:26:15;;;;;;;;;;;;;;;8.64;74.13;100546.00;5065754;28;19939;-71
2021/09/30 02:34:44;;;;;;;;;;;;;;;8.67;73.82;100556.44;5060754;28;19919;-71
2021/09/30 02:58:57;;;;;;;;;;;;;;;8.68;73.16;100563.41;5010258;28;20443;-72
2021/09/30 03:01:23;;;;;;;;;;;;;;;8.70;73.71;100551.09;5010143;28;19914;-72
2021/09/30 03:03:51;;;;;;;;;;;;;;;8.64;73.43;100554.78;5010778;28;19917;-71
2021/09/30 03:06:16;;;;;;;;;;;;;;;8.58;73.39;100555.78;5010382;28;19940;-72
2021/09/30 03:08:46;;;;;;;;;;;;;;;8.54;73.88;100555.91;5010258;28;19914;-72
2021/09/30 03:11:12;;;;;;;;;;;;;;;8.49;73.85;100558.69;5009644;28;20277;-72
2021/09/30 03:13:39;;;;;;;;;;;;;;;8.52;74.09;100555.13;5009916;28;19914;-71
2021/09/30 03:16:31;;;;;;;;;;;;;;;8.52;74.06;100555.97;5008836;28;20296;-71
2021/09/30 03:18:55;;;;;;;;;;;;;;;8.58;74.28;100552.31;5009949;28;20004;-72
2021/09/30 03:24:07;;;;;;;;;;;;;;;8.52;73.88;100561.22;5010239;28;19963;-72
2021/09/30 03:26:33;;;;;;;;;;;;;;;8.49;73.94;100570.94;5009855;28;20000;-72
2021/09/30 03:28:59;;;;;;;;;;;;;;;8.48;73.87;100561.34;5009317;28;20000;-73
2021/09/30 03:31:25;;;;;;;;;;;;;;;8.47;73.49;100564.91;5009488;28;19943;-72
2021/09/30 03:33:50;;;;;;;;;;;;;;;8.46;74.15;100571.91;5009986;28;19988;-72
2021/09/30 03:36:15;;;;;;;;;;;;;;;8.41;74.35;100567.69;5009933;28;20007;-72
2021/09/30 03:38:41;;;;;;;;;;;;;;;8.41;73.95;100568.53;5012388;28;20072;-73
2021/09/30 03:41:06;;;;;;;;;;;;;;;8.44;74.38;100572.84;5026062;28;20292;-72
2021/09/30 03:43:31;;;;;;;;;;;;;;;8.43;73.90;100576.41;5028055;28;19996;-72
2021/09/30 03:45:57;;;;;;;;;;;;;;;8.47;73.72;100578.91;5029493;28;19919;-73
2021/09/30 03:48:22;;;;;;;;;;;;;;;8.47;74.29;100572.78;5028562;28;19927;-72
2021/09/30 03:53:19;;;;;;;;;;;;;;;8.48;73.79;100577.97;5028979;28;20036;-73
2021/09/30 04:01:05;;;;;;;;;;;;;;;8.55;73.57;100586.56;5028735;28;20023;-72
2021/09/30 04:03:30;;;;;;;;;;;;;;;8.53;73.67;100585.75;5027909;28;19921;-73
2021/09/30 04:05:55;;;;;;;;;;;;;;;8.50;73.91;100584.06;5029326;28;19913;-71
2021/09/30 04:08:21;;;;;;;;;;;;;;;8.50;73.99;100583.19;5029505;28;20380;-71
2021/09/30 04:10:46;;;;;;;;;;;;;;;8.49;73.73;100581.47;5029027;28;19951;-70
2021/09/30 04:13:11;;;;;;;;;;;;;;;8.52;73.18;100586.66;5028576;28;19925;-73
2021/09/30 04:15:37;;;;;;;;;;;;;;;8.54;73.50;100585.72;5030258;28;19917;-72
2021/09/30 04:18:02;;;;;;;;;;;;;;;8.57;73.05;100590.00;5028999;28;19963;-72
2021/09/30 04:20:27;;;;;;;;;;;;;;;8.54;72.87;100593.59;5031213;28;19913;-72
2021/09/30 04:22:53;;;;;;;;;;;;;;;8.54;73.81;100595.34;5035722;28;19939;-72
2021/09/30 04:25:18;;;;;;;;;;;;;;;8.64;73.45;100599.44;5035636;28;19917;-73
2021/09/30 04:27:43;;;;;;;;;;;;;;;8.67;73.25;100602.00;5034637;28;19917;-73
2021/09/30 04:30:09;;;;;;;;;;;;;;;8.66;73.38;100596.75;5034702;28;19913;-73
2021/09/30 04:32:34;;;;;;;;;;;;;;;8.69;72.85;100600.19;5032618;28;19999;-73
2021/09/30 04:34:59;;;;;;;;;;;;;;;8.71;72.43;100595.75;5033519;28;19999;-72
2021/09/30 04:37:25;;;;;;;;;;;;;;;8.68;72.90;100603.69;5032855;28;19984;-72
2021/09/30 04:39:51;;;;;;;;;;;;;;;8.63;72.71;100602.13;5033492;28;19913;-72
2021/09/30 04:42:17;;;;;;;;;;;;;;;8.60;73.34;100597.81;5032265;28;19927;-72
2021/09/30 04:44:42;;;;;;;;;;;;;;;8.54;73.03;100600.59;5032650;28;19919;-73
2021/09/30 04:47:07;;;;;;;;;;;;;;;8.49;72.92;100605.13;5024528;28;19913;-73
2021/09/30 04:49:32;;;;;;;;;;;;;;;8.47;73.04;100604.31;5011534;28;20009;-73
2021/09/30 04:51:58;;;;;;;;;;;;;;;8.50;72.79;100609.47;5012021;28;20385;-72
2021/09/30 04:54:23;;;;;;;;;;;;;;;8.53;73.21;100614.66;5013100;28;19917;-72
2021/09/30 04:56:48;;;;;;;;;;;;;;;8.51;73.15;100613.81;5011114;28;19920;-72
2021/09/30 04:59:13;;;;;;;;;;;;;;;8.46;73.59;100615.72;5011634;28;19925;-72
2021/09/30 05:01:38;;;;;;;;;;;;;;;8.44;73.38;100613.16;5010654;28;19913;-71
2021/09/30 05:04:04;;;;;;;;;;;;;;;8.45;73.08;100614.84;5011173;28;19917;-72
2021/09/30 05:06:29;;;;;;;;;;;;;;;8.44;73.19;100612.25;5013829;28;19996;-74
2021/09/30 05:08:58;;;;;;;;;;;;;;;8.44;72.97;100614.88;5011133;28;19913;-72
2021/09/30 05:11:23;;;;;;;;;;;;;;;8.41;73.75;100614.97;5012481;28;19914;-72
2021/09/30 05:13:53;;;;;;;;;;;;;;;8.35;73.15;100619.47;5011799;28;20344;-72
2021/09/30 05:16:18;;;;;;;;;;;;;;;8.37;73.02;100615.03;5012975;28;19924;-72
2021/09/30 05:18:51;;;;;;;;;;;;;;;8.34;73.11;100619.50;5011556;28;19917;-72
2021/09/30 05:21:16;;;;;;;;;;;;;;;8.38;73.06;100622.00;5011580;28;20313;-72
2021/09/30 05:23:42;;;;;;;;;;;;;;;8.37;73.03;100622.91;5011746;28;19918;-72
2021/09/30 05:26:07;;;;;;;;;;;;;;;8.37;73.33;100624.69;5011718;28;19945;-72
2021/09/30 05:28:33;;;;;;;;;;;;;;;8.38;73.59;100626.41;5013721;28;19914;-71
2021/09/30 05:31:00;;;;;;;;;;;;;;;8.40;72.97;100626.41;5015948;28;19920;-71
2021/09/30 05:33:25;;;;;;;;;;;;;;;8.46;72.95;100634.09;5011768;28;19913;-72
2021/09/30 05:35:50;;;;;;;;;;;;;;;8.47;72.60;100631.44;5012502;28;19913;-72
2021/09/30 05:38:15;;;;;;;;;;;;;;;8.46;73.04;100634.97;5010326;28;19920;-73
2021/09/30 05:40:41;;;;;;;;;;;;;;;8.46;72.63;100631.47;5011834;28;19992;-72
2021/09/30 05:43:11;;;;;;;;;;;;;;;8.44;72.51;100634.16;5011442;28;19921;-73
2021/09/30 05:45:42;;;;;;;;;;;;;;;8.44;73.15;100639.44;5012108;28;20266;-73
2021/09/30 05:48:07;;;;;;;;;;;;;;;8.44;73.05;100647.31;5005915;28;20435;-73
2021/09/30 05:50:38;;;;;;;;;;;;;;;8.47;72.77;100641.97;5033608;28;19913;-72
2021/09/30 05:53:04;;;;;;;;;;;;;;;8.51;73.07;100638.31;5032118;28;20008;-73
2021/09/30 05:55:29;;;;;;;;;;;;;;;8.49;72.07;100645.41;5031476;28;19996;-73
2021/09/30 05:57:57;;;;;;;;;;;;;;;8.46;72.38;100644.63;5005876;28;19913;-72
2021/09/30 06:01:03;;;;;;;;;;;;;;;8.46;72.59;100644.63;5026775;28;19927;-71
2021/09/30 06:13:53;;;;;;;;;;;;;;;8.51;72.49;100643.59;5050655;28;20376;-73
2021/09/30 06:16:22;;;;;;;;;;;;;;;8.55;72.50;100636.50;5050754;28;20411;-73
2021/09/30 06:18:47;;;;;;;;;;;;;;;8.59;72.22;100628.50;5051174;28;20320;-72
2021/09/30 06:21:13;;;;;;;;;;;;;;;8.64;72.08;100645.88;5050135;28;19992;-72
2021/09/30 06:23:40;;;;;;;;;;;;;;;8.66;71.57;100655.44;5051168;28;19917;-74
2021/09/30 06:26:06;;;;;;;;;;;;;;;8.64;72.29;100648.50;5049900;28;19920;-72
2021/09/30 06:28:31;;;;;;;;;;;;;;;8.69;71.75;100642.25;5051542;28;19920;-72
2021/09/30 06:30:57;;;;;;;;;;;;;;;8.71;71.62;100642.19;5049273;28;19967;-72
2021/09/30 06:33:24;;;;;;;;;;;;;;;8.71;72.25;100640.44;5050709;28;20327;-71
2021/09/30 06:35:49;;;;;;;;;;;;;;;8.76;71.37;100643.81;5049375;28;19939;-72
2021/09/30 06:38:14;;;;;;;;;;;;;;;8.80;71.36;100649.81;5050705;28;19916;-73
2021/09/30 06:40:40;;;;;;;;;;;;;;;8.80;71.90;100645.41;5049179;28;19912;-71
2021/09/30 06:43:05;;;;;;;;;;;;;;;8.87;71.86;100634.75;5050103;28;19920;-71
2021/09/30 06:45:31;;;;;;;;;;;;;;;8.93;70.95;100652.97;5049828;28;19951;-72
2021/09/30 06:47:57;;;;;;;;;;;;;;;9.05;70.80;100642.09;5050245;28;19947;-72
2021/09/30 06:50:22;;;;;;;;;;;;;;;9.09;71.00;100645.50;5050410;28;19956;-73
2021/09/30 06:52:47;;;;;;;;;;;;;;;9.09;70.31;100642.88;5022759;28;20365;-72
2021/09/30 06:55:13;;;;;;;;;;;;;;;9.13;70.32;100636.59;5008954;28;20391;-72
2021/09/30 06:57:38;;;;;;;;;;;;;;;9.17;70.71;100633.84;5009935;28;20396;-72
2021/09/30 07:00:06;;;;;;;;;;;;;;;9.14;69.83;100628.66;5010652;28;19917;-72
2021/09/30 07:02:32;;;;;;;;;;;;;;;9.21;70.77;100630.22;5009780;28;20395;-72
2021/09/30 07:04:58;;;;;;;;;;;;;;;9.26;69.80;100629.22;5010536;28;19913;-72
2021/09/30 07:07:23;;;;;;;;;;;;;;;9.33;69.80;100634.25;5010272;28;20365;-72
2021/09/30 07:09:48;;;;;;;;;;;;;;;9.38;69.57;100644.63;5010198;28;19913;-72
2021/09/30 07:12:14;;;;;;;;;;;;;;;9.50;70.20;100643.38;5006925;28;19921;-72
2021/09/30 07:14:39;;;;;;;;;;;;;;;9.61;69.33;100641.28;5011209;28;19921;-73
2021/09/30 07:17:05;;;;;;;;;;;;;;;9.68;69.36;100648.09;5010573;28;19918;-73
2021/09/30 07:19:33;;;;;;;;;;;;;;;9.74;69.32;100653.13;5011970;28;19917;-71
2021/09/30 07:21:58;;;;;;;;;;;;;;;9.84;68.71;100645.81;5008480;28;20293;-72
2021/09/30 07:24:23;;;;;;;;;;;;;;;9.86;68.67;100647.47;5010618;28;19924;-72
2021/09/30 07:26:48;;;;;;;;;;;;;;;9.93;68.28;100647.28;5010407;28;20468;-72
2021/09/30 07:29:13;;;;;;;;;;;;;;;9.95;68.41;100648.09;5010063;28;20000;-73
2021/09/30 07:31:42;;;;;;;;;;;;;;;10.03;68.44;100659.25;5009406;28;19948;-73
2021/09/30 07:34:11;;;;;;;;;;;;;;;10.06;68.30;100657.34;4987126;28;19914;-73
2021/09/30 07:36:37;;;;;;;;;;;;;;;10.08;67.63;100657.31;5008693;28;19920;-72
2021/09/30 07:39:03;;;;;;;;;;;;;;;10.14;67.91;100657.13;5010121;28;19948;-73
2021/09/30 07:41:28;;;;;;;;;;;;;;;10.20;67.89;100656.91;5007931;28;19959;-73
2021/09/30 07:43:53;;;;;;;;;;;;;;;10.31;67.29;100662.72;5009237;28;20337;-73
2021/09/30 07:46:18;;;;;;;;;;;;;;;10.43;66.88;100656.13;5009632;28;19913;-72
2021/09/30 07:48:44;;;;;;;;;;;;;;;10.50;67.14;100651.53;5009539;28;19968;-71
2021/09/30 07:51:09;;;;;;;;;;;;;;;10.62;66.21;100659.00;5009172;28;19920;-72
2021/09/30 07:53:34;;;;;;;;;;;;;;;10.74;66.09;100649.81;5010166;28;19913;-73
2021/09/30 07:55:59;;;;;;;;;;;;;;;10.80;65.47;100652.19;5026673;28;19924;-73
2021/09/30 07:58:25;;;;;;;;;;;;;;;10.79;65.00;100652.28;5029230;28;20035;-72
2021/09/30 08:00:50;;;;;;;;;;;;;;;10.87;65.39;100655.50;5029371;28;19921;-73
2021/09/30 08:03:16;;;;;;;;;;;;;;;11.07;65.01;100652.97;5029500;28;19917;-73
2021/09/30 08:05:41;;;;;;;;;;;;;;;11.15;64.56;100653.56;5034297;28;19988;-73
2021/09/30 08:08:11;;;;;;;;;;;;;;;11.20;64.22;100653.38;5029354;28;19917;-73
2021/09/30 08:10:38;;;;;;;;;;;;;;;11.46;63.52;100652.38;5028265;28;19917;-71
2021/09/30 08:13:04;;;;;;;;;;;;;;;11.85;62.32;100649.06;5030838;28;19973;-70
2021/09/30 08:15:39;;;;;;;;;;;;;;;11.90;61.63;100651.56;5029144;28;19955;-71
2021/09/30 08:18:04;;;;;;;;;;;;;;;12.06;62.16;100660.59;5019587;28;19948;-72
2021/09/30 08:20:30;;;;;;;;;;;;;;;12.17;62.01;100663.63;5027983;28;19971;-73
2021/09/30 08:22:55;;;;;;;;;;;;;;;12.23;61.00;100663.38;5032920;28;19931;-72
2021/09/30 08:25:48;;;;;;;;;;;;;;;12.23;61.33;100662.50;5027785;28;19924;-72
2021/09/30 08:28:17;;;;;;;;;;;;;;;12.28;60.51;100665.84;5028836;28;20084;-72
2021/09/30 08:30:42;;;;;;;;;;;;;;;12.37;60.72;100664.56;5028617;28;19920;-72
2021/09/30 08:33:08;;;;;;;;;;;;;;;12.42;60.71;100663.44;5029127;28;20318;-72
2021/09/30 08:35:34;;;;;;;;;;;;;;;12.54;59.87;100662.06;5030681;28;19959;-70
2021/09/30 08:37:59;;;;;;;;;;;;;;;12.68;59.29;100664.97;5027997;28;19947;-72
2021/09/30 08:40:25;;;;;;;;;;;;;;;12.81;59.95;100670.56;5028905;28;19913;-73
2021/09/30 08:42:50;;;;;;;;;;;;;;;13.10;58.19;100668.41;5027806;28;19917;-72
2021/09/30 08:45:20;;;;;;;;;;;;;;;13.64;56.90;100666.81;5019597;28;20068;-73
2021/09/30 08:47:53;;;;;;;;;;;;;;;14.34;54.53;100665.09;5028916;28;19952;-72
2021/09/30 08:50:18;;;;;;;;;;;;;;;15.06;52.73;100665.81;5028988;28;20019;-71
2021/09/30 08:52:43;;;;;;;;;;;;;;;15.59;51.49;100670.00;5028160;28;19963;-73
2021/09/30 08:55:09;;;;;;;;;;;;;;;16.21;49.48;100672.69;5018543;28;19992;-71
2021/09/30 08:57:34;;;;;;;;;;;;;;;16.75;48.38;100662.34;5009343;28;20297;-73
2021/09/30 09:00:01;;;;;;;;;;;;;;;17.38;46.90;100662.97;5008166;28;19914;-72
2021/09/30 09:02:26;;;;;;;;;;;;;;;17.78;44.81;100668.41;5008127;28;19952;-71
2021/09/30 09:04:52;;;;;;;;;;;;;;;18.34;43.07;100658.47;5008615;28;20344;-72
2021/09/30 09:07:20;;;;;;;;;;;;;;;18.21;43.43;100663.78;5009688;28;19948;-72
2021/09/30 09:09:46;;;;;;;;;;;;;;;17.72;44.20;100655.44;5024643;28;19913;-73
2021/09/30 09:12:11;;;;;;;;;;;;;;;17.17;45.36;100662.50;5016934;28;20254;-72
2021/09/30 09:14:38;;;;;;;;;;;;;;;17.69;44.17;100661.84;5031373;28;20372;-71
2021/09/30 09:17:05;;;;;;;;;;;;;;;18.02;42.54;100660.63;5026954;28;19913;-72
2021/09/30 09:19:38;;;;;;;;;;;;;;;17.90;42.80;100659.63;5010319;28;19918;-72
2021/09/30 09:22:14;;;;;;;;;;;;;;;17.54;43.76;100658.34;5011380;28;19917;-73
2021/09/30 09:24:58;;;;;;;;;;;;;;;17.38;43.73;100657.63;5011952;28;19917;-72
2021/09/30 09:27:24;;;;;;;;;;;;;;;17.23;44.74;100664.78;5014869;28;19913;-72
2021/09/30 09:30:02;;;;;;;;;;;;;;;;;;;;;
2021/09/30 09:32:27;;;;;;;;;;;;;;;17.10;45.21;100672.69;5024147;28;19923;-73
2021/09/30 09:34:53;;;;;;;;;;;;;;;16.99;44.77;100669.84;5014372;28;20016;-73
2021/09/30 09:37:23;;;;;;;;;;;;;;;17.78;43.05;100663.06;5019810;28;19909;-73
2021/09/30 09:39:48;;;;;;;;;;;;;;;18.91;41.14;100651.91;5012668;28;19913;-71
2021/09/30 09:42:15;;;;;;;;;;;;;;;19.50;39.07;100654.81;5011190;28;19944;-74
2021/09/30 09:44:52;;;;;;;;;;;;;;;19.71;38.47;100655.09;4994445;28;20308;-72
2021/09/30 09:47:29;;;;;;;;;;;;;;;20.45;37.33;100646.00;5011808;28;19928;-73
2021/09/30 09:50:13;;;;;;;;;;;;;;;20.38;36.46;100642.97;5012443;28;19917;-72
2021/09/30 09:52:45;;;;;;;;;;;;;;;20.69;36.09;100646.81;5012535;28;19921;-73
2021/09/30 09:55:15;;;;;;;;;;;;;;;21.18;35.12;100637.56;4991944;28;19917;-73
2021/09/30 09:57:41;;;;;;;;;;;;;;;21.25;35.14;100639.78;5012100;28;20346;-72
2021/09/30 10:00:13;;;;;;;;;;;;;;;21.48;34.61;100619.16;5012190;28;19988;-72
2021/09/30 10:02:38;;;;;;;;;;;;;;;21.60;34.38;100629.75;5024428;28;19921;-72
2021/09/30 10:05:04;;;;;;;;;;;;;;;21.60;34.01;100632.41;5032176;28;19975;-73
2021/09/30 10:07:29;;;;;;;;;;;;;;;21.33;34.18;100632.81;5032526;28;19921;-72
2021/09/30 10:09:54;;;;;;;;;;;;;;;21.93;33.67;100627.06;5031194;28;19913;-72
2021/09/30 10:12:20;;;;;;;;;;;;;;;21.89;33.18;100623.81;5031069;28;19913;-72
2021/09/30 10:14:46;;;;;;;;;;;;;;;22.03;33.10;100614.59;5031288;28;19913;-73
2021/09/30 10:17:11;;;;;;;;;;;;;;;22.53;32.98;100611.31;5031226;28;20291;-71
2021/09/30 10:19:37;;;;;;;;;;;;;;;22.20;33.22;100611.38;5030064;28;19913;-72
2021/09/30 10:22:02;;;;;;;;;;;;;;;21.79;34.49;100615.66;5049912;28;19921;-71
2021/09/30 10:24:28;;;;;;;;;;;;;;;20.96;35.07;100611.63;5050106;28;20046;-72
2021/09/30 10:26:55;;;;;;;;;;;;;;;19.98;36.48;100611.16;5050427;28;20288;-72
2021/09/30 10:29:38;;;;;;;;;;;;;;;18.88;38.61;100606.72;5049319;28;20003;-72
2021/09/30 10:32:05;;;;;;;;;;;;;;;18.03;40.15;100611.63;5050082;28;19917;-73
2021/09/30 10:34:34;;;;;;;;;;;;;;;17.42;41.26;100613.81;5050928;28;19920;-73
2021/09/30 10:37:18;;;;;;;;;;;;;;;17.07;42.52;100610.75;5049528;28;19920;-73
2021/09/30 10:39:43;;;;;;;;;;;;;;;16.67;43.51;100608.72;5047008;28;19912;-73
2021/09/30 10:42:28;;;;;;;;;;;;;;;16.38;44.43;100621.13;5048701;28;19913;-73
2021/09/30 10:45:09;;;;;;;;;;;;;;;16.21;44.70;100619.47;5050661;28;19920;-73
2021/09/30 10:47:34;;;;;;;;;;;;;;;16.16;44.47;100607.41;5050705;28;19917;-73
2021/09/30 10:49:59;;;;;;;;;;;;;;;16.18;44.75;100611.69;5050034;28;20242;-72
2021/09/30 10:52:31;;;;;;;;;;;;;;;16.13;44.26;100603.13;5048305;28;20300;-73
2021/09/30 10:54:59;;;;;;;;;;;;;;;16.14;44.15;100594.19;5050047;28;19916;-72
2021/09/30 10:57:37;;;;;;;;;;;;;;;16.24;44.95;100599.81;5050169;28;20043;-72
2021/09/30 11:00:17;;;;;;;;;;;;;;;16.31;44.85;100590.53;5050188;28;19913;-72
2021/09/30 11:03:01;;;;;;;;;;;;;;;16.23;44.94;100590.13;5049340;28;19913;-72
2021/09/30 11:05:34;;;;;;;;;;;;;;;16.15;44.85;100581.75;5050433;28;19917;-72
2021/09/30 11:08:17;;;;;;;;;;;;;;;16.13;44.68;100583.66;5050068;28;19966;-72
2021/09/30 11:11:16;;;;;;;;;;;;;;;16.03;44.23;100578.88;5050116;28;19917;-72
2021/09/30 11:13:45;;;;;;;;;;;;;;;15.95;44.65;100575.81;5047681;28;19913;-72
2021/09/30 11:16:12;;;;;;;;;;;;;;;15.87;44.76;100578.06;5047847;28;20364;-72
2021/09/30 11:18:42;;;;;;;;;;;;;;;16.00;45.59;100578.22;5050731;28;19920;-73
2021/09/30 11:21:26;;;;;;;;;;;;;;;16.06;45.35;100577.84;5036169;28;19917;-73
2021/09/30 11:23:52;;;;;;;;;;;;;;;16.11;45.21;100581.06;5030422;28;19919;-74
2021/09/30 11:26:17;;;;;;;;;;;;;;;16.20;45.37;100583.19;5030081;28;20016;-73
2021/09/30 11:28:42;;;;;;;;;;;;;;;16.34;45.30;100578.84;5029016;28;19913;-72
2021/09/30 11:31:22;;;;;;;;;;;;;;;16.33;45.30;100580.66;5029402;28;19913;-73
2021/09/30 11:33:48;;;;;;;;;;;;;;;16.30;45.55;100579.03;5017116;28;20075;-72
2021/09/30 11:36:13;;;;;;;;;;;;;;;16.06;45.49;100576.03;5010364;28;20024;-72
2021/09/30 11:38:38;;;;;;;;;;;;;;;16.00;45.86;100580.88;5010834;28;19922;-73
2021/09/30 11:41:04;;;;;;;;;;;;;;;15.94;46.36;100578.56;5013690;28;20000;-71
2021/09/30 11:43:30;;;;;;;;;;;;;;;15.66;46.22;100580.16;5009635;28;19913;-73
2021/09/30 11:45:55;;;;;;;;;;;;;;;15.51;46.74;100573.91;5009221;28;19917;-73
2021/09/30 11:48:20;;;;;;;;;;;;;;;15.54;46.75;100571.06;5009602;28;20369;-71
2021/09/30 11:50:54;;;;;;;;;;;;;;;15.58;47.17;100571.72;5009564;28;20338;-71
2021/09/30 11:53:20;;;;;;;;;;;;;;;15.64;47.44;100569.59;5009158;28;19913;-72
2021/09/30 11:55:45;;;;;;;;;;;;;;;15.67;46.62;100573.88;5009706;28;19918;-72
2021/09/30 11:58:12;;;;;;;;;;;;;;;15.72;47.24;100566.50;5009933;28;20292;-72
2021/09/30 12:00:40;;;;;;;;;;;;;;;15.62;47.51;100567.97;5009780;28;19959;-72
2021/09/30 12:03:06;;;;;;;;;;;;;;;15.68;47.32;100562.31;5008926;28;19914;-72
2021/09/30 12:05:38;;;;;;;;;;;;;;;15.59;46.70;100560.19;5009549;28;20005;-71
2021/09/30 12:08:06;;;;;;;;;;;;;;;15.34;47.11;100561.56;5009501;28;20774;-72
2021/09/30 12:10:32;;;;;;;;;;;;;;;15.25;47.42;100554.97;5009453;28;20427;-71
2021/09/30 12:12:58;;;;;;;;;;;;;;;15.14;47.41;100556.53;5027006;28;19917;-72
2021/09/30 12:15:23;;;;;;;;;;;;;;;15.08;47.86;100551.56;5028939;28;20415;-71
2021/09/30 12:17:49;;;;;;;;;;;;;;;15.09;48.55;100554.13;5027371;28;19920;-72
2021/09/30 12:20:16;;;;;;;;;;;;;;;14.96;48.52;100559.28;5028809;28;19913;-72
2021/09/30 12:22:46;;;;;;;;;;;;;;;14.91;48.60;100557.78;5028553;28;20365;-72
2021/09/30 12:25:24;;;;;;;;;;;;;;;14.88;48.72;100557.97;5027759;28;20289;-74
2021/09/30 12:27:51;;;;;;;;;;;;;;;14.77;48.74;100554.09;5028077;28;19917;-72
2021/09/30 12:30:18;;;;;;;;;;;;;;;14.71;49.34;100557.06;5029339;28;19920;-73
2021/09/30 12:32:44;;;;;;;;;;;;;;;14.71;49.66;100553.56;5030316;28;20384;-72
2021/09/30 12:35:21;;;;;;;;;;;;;;;14.74;49.94;100551.63;5030881;28;19913;-73
2021/09/30 12:37:49;;;;;;;;;;;;;;;14.76;49.71;100555.03;5031169;28;19924;-72
2021/09/30 12:40:26;;;;;;;;;;;;;;;14.70;49.60;100546.56;5030468;28;20261;-73
2021/09/30 12:42:59;;;;;;;;;;;;;;;14.71;49.16;100540.31;5030958;28;19919;-72
2021/09/30 12:45:25;;;;;;;;;;;;;;;14.70;49.26;100530.63;5029813;28;19921;-73
2021/09/30 12:47:59;;;;;;;;;;;;;;;14.67;49.00;100533.44;5034294;28;19927;-73
2021/09/30 12:50:33;;;;;;;;;;;;;;;14.66;48.53;100521.97;5034634;28;20003;-72
2021/09/30 12:53:02;;;;;;;;;;;;;;;14.74;49.18;100530.38;5033078;28;19920;-72
2021/09/30 12:55:28;;;;;;;;;;;;;;;14.80;49.48;100515.91;5033078;28;19928;-73
2021/09/30 12:57:54;;;;;;;;;;;;;;;14.88;49.35;100505.72;5032994;28;19917;-72
2021/09/30 13:00:20;;;;;;;;;;;;;;;14.88;49.51;100508.38;5032946;28;19979;-72
2021/09/30 13:02:47;;;;;;;;;;;;;;;14.90;49.66;100510.97;5031912;28;19913;-73
2021/09/30 13:05:13;;;;;;;;;;;;;;;14.93;49.87;100505.47;5032261;28;20269;-73
2021/09/30 13:07:43;;;;;;;;;;;;;;;15.00;49.63;100507.69;5032604;28;19924;-73
2021/09/30 13:10:09;;;;;;;;;;;;;;;15.00;49.67;100504.19;5024844;28;20285;-72
2021/09/30 13:12:34;;;;;;;;;;;;;;;14.99;50.02;100499.84;5031345;28;19913;-71
2021/09/30 13:14:59;;;;;;;;;;;;;;;15.04;50.35;100500.44;5032313;28;19920;-72
2021/09/30 13:17:26;;;;;;;;;;;;;;;15.11;50.44;100493.81;5032176;28;19913;-73
2021/09/30 13:19:54;;;;;;;;;;;;;;;15.12;49.18;100500.84;5033166;28;19924;-73
2021/09/30 13:22:23;;;;;;;;;;;;;;;14.98;48.47;100503.41;5015430;28;19997;-72
2021/09/30 13:24:49;;;;;;;;;;;;;;;14.94;48.37;100496.53;5012153;28;19924;-71
2021/09/30 13:27:15;;;;;;;;;;;;;;;14.95;47.99;100491.16;5011112;28;20289;-72
2021/09/30 13:29:42;;;;;;;;;;;;;;;14.91;48.35;100486.94;5013811;28;19953;-73
2021/09/30 13:32:07;;;;;;;;;;;;;;;14.91;48.66;100480.78;5013251;28;19914;-72
2021/09/30 13:34:32;;;;;;;;;;;;;;;15.05;48.91;100477.38;5013425;28;19937;-72
2021/09/30 13:36:58;;;;;;;;;;;;;;;15.18;48.89;100465.94;5016192;28;19913;-74
2021/09/30 13:39:23;;;;;;;;;;;;;;;15.28;47.47;100462.75;5012282;28;20304;-75
2021/09/30 13:41:48;;;;;;;;;;;;;;;15.32;47.42;100459.84;5011728;28;19929;-72
2021/09/30 13:44:14;;;;;;;;;;;;;;;15.37;47.35;100454.28;5010758;28;19924;-72
2021/09/30 13:46:39;;;;;;;;;;;;;;;15.43;47.71;100452.13;5012216;28;19964;-73
2021/09/30 13:49:04;;;;;;;;;;;;;;;15.42;47.43;100442.41;5010096;28;19917;-73
2021/09/30 13:51:31;;;;;;;;;;;;;;;15.51;47.79;100451.66;5011353;28;19994;-73
2021/09/30 13:53:56;;;;;;;;;;;;;;;15.62;47.52;100448.34;5011484;28;19968;-72
2021/09/30 13:56:22;;;;;;;;;;;;;;;15.54;46.19;100446.16;5011838;28;19952;-73
2021/09/30 13:58:47;;;;;;;;;;;;;;;15.50;46.59;100447.28;5012226;28;19939;-73
2021/09/30 14:01:12;;;;;;;;;;;;;;;15.55;46.53;100441.69;5011338;28;20012;-72
2021/09/30 14:03:38;;;;;;;;;;;;;;;15.59;46.98;100437.91;5012472;28;19988;-73
2021/09/30 14:06:03;;;;;;;;;;;;;;;15.53;47.51;100433.84;5011818;28;20009;-73
2021/09/30 14:08:30;;;;;;;;;;;;;;;15.39;47.97;100439.09;5011999;28;19913;-72
2021/09/30 14:10:56;;;;;;;;;;;;;;;15.25;48.13;100443.41;5026965;28;20381;-72
2021/09/30 14:13:21;;;;;;;;;;;;;;;15.19;48.26;100434.94;5031149;28;20006;-73
2021/09/30 14:15:46;;;;;;;;;;;;;;;15.02;49.37;100434.13;5030671;28;20273;-73
2021/09/30 14:18:12;;;;;;;;;;;;;;;15.01;49.61;100431.53;5031013;28;19975;-72
2021/09/30 14:20:37;;;;;;;;;;;;;;;15.00;49.83;100436.00;5031217;28;19917;-73
2021/09/30 14:23:03;;;;;;;;;;;;;;;14.87;49.51;100435.00;5029919;28;20014;-73
2021/09/30 14:25:28;;;;;;;;;;;;;;;14.80;49.82;100438.94;5029665;28;19921;-73
2021/09/30 14:27:53;;;;;;;;;;;;;;;14.74;50.15;100429.53;5030816;28;19913;-72
2021/09/30 14:30:19;;;;;;;;;;;;;;;14.82;50.43;100426.44;5030963;28;19995;-72
2021/09/30 14:32:44;;;;;;;;;;;;;;;14.84;50.28;100429.88;5030107;28;20395;-72
2021/09/30 14:35:10;;;;;;;;;;;;;;;14.79;49.77;100421.28;5031211;28;20288;-72
2021/09/30 14:37:35;;;;;;;;;;;;;;;14.80;50.24;100415.03;5028982;28;19913;-72
2021/09/30 14:40:00;;;;;;;;;;;;;;;14.78;50.44;100423.09;5030111;28;19921;-73
2021/09/30 14:42:25;;;;;;;;;;;;;;;14.82;50.86;100415.81;5028605;28;19913;-73
2021/09/30 14:44:51;;;;;;;;;;;;;;;14.80;50.64;100407.09;5029355;28;19939;-73
2021/09/30 14:47:16;;;;;;;;;;;;;;;14.77;50.69;100405.47;5030499;28;19913;-73
2021/09/30 14:49:42;;;;;;;;;;;;;;;14.74;50.60;100410.94;5029673;28;20054;-73
2021/09/30 14:52:08;;;;;;;;;;;;;;;14.68;51.13;100405.13;5029988;28;19924;-73
2021/09/30 14:54:34;;;;;;;;;;;;;;;14.66;50.90;100396.38;5030105;28;20002;-72
2021/09/30 14:56:59;;;;;;;;;;;;;;;14.65;51.29;100405.31;5030125;28;19979;-73
2021/09/30 14:59:24;;;;;;;;;;;;;;;14.60;51.11;100397.59;5030244;28;19916;-73
2021/09/30 15:01:50;;;;;;;;;;;;;;;14.58;51.76;100391.50;5029648;28;19913;-73
2021/09/30 15:04:15;;;;;;;;;;;;;;;14.62;51.58;100395.72;5030698;28;19919;-71
2021/09/30 15:06:40;;;;;;;;;;;;;;;14.66;51.86;100396.38;5029609;28;19921;-72
2021/09/30 15:09:06;;;;;;;;;;;;;;;14.66;51.39;100385.78;5030043;28;20295;-72
2021/09/30 15:11:31;;;;;;;;;;;;;;;14.67;51.53;100390.13;5029351;28;20000;-72
2021/09/30 15:13:57;;;;;;;;;;;;;;;14.62;51.72;100378.91;5030102;28;20008;-71
2021/09/30 15:16:23;;;;;;;;;;;;;;;14.65;52.33;100378.75;5029820;28;19909;-72
2021/09/30 15:21:23;;;;;;;;;;;;;;;14.71;52.09;100379.25;5028874;28;20007;-71
2021/09/30 15:23:49;;;;;;;;;;;;;;;14.73;51.93;100379.19;5029474;28;20373;-72
2021/09/30 15:26:18;;;;;;;;;;;;;;;14.69;52.23;100381.13;5029820;28;20284;-72
2021/09/30 15:28:44;;;;;;;;;;;;;;;14.65;52.08;100376.97;5030203;28;19975;-72